sensor_id;sensor_type;location;lat;lon;timestamp;P1;durP1;ratioP1;P2;durP2;ratioP2
75986;SDS011;75291;44.670;37.810;2024-03-07T00:00:17;5.63;;;3.60;;
75986;SDS011;75291;44.670;37.810;2024-03-07T00:01:22;5.75;;;4.10;;
75986;SDS011;75291;44.670;37.810;2024-03-07T00:02:26;6.55;;;4.13;;
75986;SDS011;75291;44.670;37.810;2024-03-07T00:03:31;5.13;;;3.83;;
75986;SDS011;75291;44.670;37.810;2024-03-07T00:04:37;5.50;;;4.63;;
75986;SDS011;75291;44.670;37.810;2024-03-07T00:05:43;6.78;;;4.70;;
75986;SDS011;75291;44.670;37.810;2024-03-07T00:06:48;6.32;;;4.15;;
75986;SDS011;75291;44.670;37.810;2024-03-07T00:07:55;6.90;;;4.75;;
75986;SDS011;75291;44.670;37.810;2024-03-07T00:09:00;6.78;;;4.40;;
75986;SDS011;75291;44.670;37.810;2024-03-07T00:10:06;5.85;;;3.80;;
75986;SDS011;75291;44.670;37.810;2024-03-07T00:11:12;7.88;;;5.05;;
75986;SDS011;75291;44.670;37.810;2024-03-07T00:12:17;7.22;;;4.85;;
75986;SDS011;75291;44.670;37.810;2024-03-07T00:13:22;6.53;;;4.72;;
75986;SDS011;75291;44.670;37.810;2024-03-07T00:14:27;7.00;;;4.57;;
75986;SDS011;75291;44.670;37.810;2024-03-07T00:15:32;7.00;;;4.55;;
75986;SDS011;75291;44.670;37.810;2024-03-07T00:16:37;7.20;;;4.57;;
75986;SDS011;75291;44.670;37.810;2024-03-07T00:17:42;7.70;;;4.95;;
75986;SDS011;75291;44.670;37.810;2024-03-07T00:18:48;5.75;;;4.25;;
75986;SDS011;75291;44.670;37.810;2024-03-07T00:19:52;7.03;;;5.05;;
75986;SDS011;75291;44.670;37.810;2024-03-07T00:20:57;9.10;;;5.22;;
75986;SDS011;75291;44.670;37.810;2024-03-07T00:22:02;7.35;;;4.57;;
75986;SDS011;75291;44.670;37.810;2024-03-07T00:23:07;6.72;;;4.10;;
75986;SDS011;75291;44.670;37.810;2024-03-07T00:24:13;8.45;;;4.70;;
75986;SDS011;75291;44.670;37.810;2024-03-07T00:25:20;9.95;;;4.18;;
75986;SDS011;75291;44.670;37.810;2024-03-07T00:26:25;6.28;;;4.20;;
75986;SDS011;75291;44.670;37.810;2024-03-07T00:27:31;7.30;;;4.72;;
75986;SDS011;75291;44.670;37.810;2024-03-07T00:28:36;7.68;;;5.05;;
75986;SDS011;75291;44.670;37.810;2024-03-07T00:29:43;7.80;;;4.13;;
75986;SDS011;75291;44.670;37.810;2024-03-07T00:30:49;8.65;;;5.68;;
75986;SDS011;75291;44.670;37.810;2024-03-07T00:31:54;8.07;;;5.40;;
75986;SDS011;75291;44.670;37.810;2024-03-07T00:33:00;8.80;;;5.30;;
75986;SDS011;75291;44.670;37.810;2024-03-07T00:34:05;6.95;;;4.43;;
75986;SDS011;75291;44.670;37.810;2024-03-07T00:35:10;7.25;;;4.88;;
75986;SDS011;75291;44.670;37.810;2024-03-07T00:36:14;8.60;;;5.18;;
75986;SDS011;75291;44.670;37.810;2024-03-07T00:37:19;7.30;;;4.95;;
75986;SDS011;75291;44.670;37.810;2024-03-07T00:38:24;7.90;;;5.00;;
75986;SDS011;75291;44.670;37.810;2024-03-07T00:39:29;8.07;;;4.72;;
75986;SDS011;75291;44.670;37.810;2024-03-07T00:40:34;6.38;;;4.53;;
75986;SDS011;75291;44.670;37.810;2024-03-07T00:41:45;8.52;;;5.30;;
75986;SDS011;75291;44.670;37.810;2024-03-07T00:42:49;8.77;;;5.38;;
75986;SDS011;75291;44.670;37.810;2024-03-07T00:43:54;8.30;;;5.22;;
75986;SDS011;75291;44.670;37.810;2024-03-07T00:44:59;7.40;;;4.70;;
75986;SDS011;75291;44.670;37.810;2024-03-07T00:46:03;9.52;;;5.38;;
75986;SDS011;75291;44.670;37.810;2024-03-07T00:47:10;8.82;;;5.43;;
75986;SDS011;75291;44.670;37.810;2024-03-07T00:48:16;9.55;;;6.00;;
75986;SDS011;75291;44.670;37.810;2024-03-07T00:49:20;9.63;;;6.00;;
75986;SDS011;75291;44.670;37.810;2024-03-07T00:50:25;9.50;;;6.63;;
75986;SDS011;75291;44.670;37.810;2024-03-07T00:51:31;14.13;;;6.93;;
75986;SDS011;75291;44.670;37.810;2024-03-07T00:52:36;10.88;;;6.35;;
75986;SDS011;75291;44.670;37.810;2024-03-07T00:53:42;11.95;;;7.45;;
75986;SDS011;75291;44.670;37.810;2024-03-07T00:54:47;13.48;;;8.35;;
75986;SDS011;75291;44.670;37.810;2024-03-07T00:55:52;13.02;;;7.88;;
75986;SDS011;75291;44.670;37.810;2024-03-07T00:56:57;13.13;;;8.13;;
75986;SDS011;75291;44.670;37.810;2024-03-07T00:58:01;14.35;;;8.40;;
75986;SDS011;75291;44.670;37.810;2024-03-07T00:59:06;13.90;;;7.75;;
75986;SDS011;75291;44.670;37.810;2024-03-07T01:00:10;13.25;;;8.20;;
75986;SDS011;75291;44.670;37.810;2024-03-07T01:01:18;15.20;;;8.35;;
75986;SDS011;75291;44.670;37.810;2024-03-07T01:02:24;13.85;;;7.70;;
75986;SDS011;75291;44.670;37.810;2024-03-07T01:03:29;12.13;;;7.47;;
75986;SDS011;75291;44.670;37.810;2024-03-07T01:04:35;13.18;;;7.93;;
75986;SDS011;75291;44.670;37.810;2024-03-07T01:05:40;15.85;;;8.75;;
75986;SDS011;75291;44.670;37.810;2024-03-07T01:06:44;13.82;;;7.35;;
75986;SDS011;75291;44.670;37.810;2024-03-07T01:07:49;14.82;;;8.15;;
75986;SDS011;75291;44.670;37.810;2024-03-07T01:08:55;14.05;;;8.52;;
75986;SDS011;75291;44.670;37.810;2024-03-07T01:10:00;14.65;;;8.95;;
75986;SDS011;75291;44.670;37.810;2024-03-07T01:11:07;13.73;;;8.95;;
75986;SDS011;75291;44.670;37.810;2024-03-07T01:12:15;14.45;;;8.32;;
75986;SDS011;75291;44.670;37.810;2024-03-07T01:13:21;18.88;;;9.93;;
75986;SDS011;75291;44.670;37.810;2024-03-07T01:14:28;17.65;;;9.25;;
75986;SDS011;75291;44.670;37.810;2024-03-07T01:15:35;16.25;;;9.20;;
75986;SDS011;75291;44.670;37.810;2024-03-07T01:16:41;16.23;;;9.50;;
75986;SDS011;75291;44.670;37.810;2024-03-07T01:17:46;17.77;;;9.63;;
75986;SDS011;75291;44.670;37.810;2024-03-07T01:18:50;16.80;;;9.38;;
75986;SDS011;75291;44.670;37.810;2024-03-07T01:19:55;18.00;;;10.27;;
75986;SDS011;75291;44.670;37.810;2024-03-07T01:21:02;15.88;;;9.25;;
75986;SDS011;75291;44.670;37.810;2024-03-07T01:22:08;17.52;;;10.30;;
75986;SDS011;75291;44.670;37.810;2024-03-07T01:23:13;16.95;;;9.90;;
75986;SDS011;75291;44.670;37.810;2024-03-07T01:24:17;16.05;;;9.15;;
75986;SDS011;75291;44.670;37.810;2024-03-07T01:25:24;19.65;;;10.90;;
75986;SDS011;75291;44.670;37.810;2024-03-07T01:26:29;17.38;;;10.30;;
75986;SDS011;75291;44.670;37.810;2024-03-07T01:27:34;17.65;;;10.63;;
75986;SDS011;75291;44.670;37.810;2024-03-07T01:28:40;20.20;;;10.73;;
75986;SDS011;75291;44.670;37.810;2024-03-07T01:29:46;14.43;;;8.95;;
75986;SDS011;75291;44.670;37.810;2024-03-07T01:30:51;18.67;;;10.85;;
75986;SDS011;75291;44.670;37.810;2024-03-07T01:31:56;17.35;;;10.15;;
75986;SDS011;75291;44.670;37.810;2024-03-07T01:33:01;17.55;;;10.43;;
75986;SDS011;75291;44.670;37.810;2024-03-07T01:34:05;17.02;;;10.75;;
75986;SDS011;75291;44.670;37.810;2024-03-07T01:35:11;17.27;;;10.15;;
75986;SDS011;75291;44.670;37.810;2024-03-07T01:36:18;21.17;;;10.50;;
75986;SDS011;75291;44.670;37.810;2024-03-07T01:37:24;19.30;;;10.15;;
75986;SDS011;75291;44.670;37.810;2024-03-07T01:38:30;19.02;;;11.60;;
75986;SDS011;75291;44.670;37.810;2024-03-07T01:39:34;18.88;;;10.70;;
75986;SDS011;75291;44.670;37.810;2024-03-07T01:40:39;20.27;;;10.45;;
75986;SDS011;75291;44.670;37.810;2024-03-07T01:41:44;15.35;;;9.60;;
75986;SDS011;75291;44.670;37.810;2024-03-07T01:42:49;20.75;;;11.57;;
75986;SDS011;75291;44.670;37.810;2024-03-07T01:43:55;18.77;;;11.43;;
75986;SDS011;75291;44.670;37.810;2024-03-07T01:45:00;17.95;;;10.98;;
75986;SDS011;75291;44.670;37.810;2024-03-07T01:46:05;20.75;;;12.02;;
75986;SDS011;75291;44.670;37.810;2024-03-07T01:47:11;15.45;;;8.88;;
75986;SDS011;75291;44.670;37.810;2024-03-07T01:48:19;19.05;;;11.07;;
75986;SDS011;75291;44.670;37.810;2024-03-07T01:49:29;17.60;;;10.55;;
75986;SDS011;75291;44.670;37.810;2024-03-07T01:50:35;18.88;;;10.95;;
75986;SDS011;75291;44.670;37.810;2024-03-07T01:51:43;20.55;;;11.07;;
75986;SDS011;75291;44.670;37.810;2024-03-07T01:52:49;22.92;;;12.13;;
75986;SDS011;75291;44.670;37.810;2024-03-07T01:53:59;21.73;;;11.40;;
75986;SDS011;75291;44.670;37.810;2024-03-07T01:55:07;21.48;;;11.45;;
75986;SDS011;75291;44.670;37.810;2024-03-07T01:56:16;19.58;;;10.98;;
75986;SDS011;75291;44.670;37.810;2024-03-07T01:57:21;23.33;;;11.82;;
75986;SDS011;75291;44.670;37.810;2024-03-07T01:58:26;19.55;;;10.52;;
75986;SDS011;75291;44.670;37.810;2024-03-07T01:59:31;22.38;;;11.80;;
75986;SDS011;75291;44.670;37.810;2024-03-07T02:00:37;22.98;;;12.05;;
75986;SDS011;75291;44.670;37.810;2024-03-07T02:01:42;27.08;;;13.02;;
75986;SDS011;75291;44.670;37.810;2024-03-07T02:02:47;22.63;;;11.95;;
75986;SDS011;75291;44.670;37.810;2024-03-07T02:03:52;20.95;;;12.30;;
75986;SDS011;75291;44.670;37.810;2024-03-07T02:04:57;25.35;;;13.15;;
75986;SDS011;75291;44.670;37.810;2024-03-07T02:06:02;23.70;;;13.00;;
75986;SDS011;75291;44.670;37.810;2024-03-07T02:07:06;24.42;;;13.77;;
75986;SDS011;75291;44.670;37.810;2024-03-07T02:08:16;24.83;;;13.23;;
75986;SDS011;75291;44.670;37.810;2024-03-07T02:09:21;21.58;;;12.30;;
75986;SDS011;75291;44.670;37.810;2024-03-07T02:10:26;23.00;;;12.82;;
75986;SDS011;75291;44.670;37.810;2024-03-07T02:11:31;22.20;;;12.43;;
75986;SDS011;75291;44.670;37.810;2024-03-07T02:12:36;21.60;;;12.23;;
75986;SDS011;75291;44.670;37.810;2024-03-07T02:13:41;23.38;;;12.23;;
75986;SDS011;75291;44.670;37.810;2024-03-07T02:14:45;25.15;;;12.90;;
75986;SDS011;75291;44.670;37.810;2024-03-07T02:15:49;23.50;;;12.15;;
75986;SDS011;75291;44.670;37.810;2024-03-07T02:16:55;26.05;;;13.32;;
75986;SDS011;75291;44.670;37.810;2024-03-07T02:17:59;25.20;;;13.30;;
75986;SDS011;75291;44.670;37.810;2024-03-07T02:19:04;22.35;;;12.20;;
75986;SDS011;75291;44.670;37.810;2024-03-07T02:20:11;24.42;;;12.98;;
75986;SDS011;75291;44.670;37.810;2024-03-07T02:21:17;24.13;;;13.00;;
75986;SDS011;75291;44.670;37.810;2024-03-07T02:22:22;22.98;;;10.77;;
75986;SDS011;75291;44.670;37.810;2024-03-07T02:23:29;21.98;;;11.88;;
75986;SDS011;75291;44.670;37.810;2024-03-07T02:24:34;27.65;;;13.13;;
75986;SDS011;75291;44.670;37.810;2024-03-07T02:25:39;24.70;;;12.68;;
75986;SDS011;75291;44.670;37.810;2024-03-07T02:26:44;23.30;;;13.30;;
75986;SDS011;75291;44.670;37.810;2024-03-07T02:27:48;21.83;;;11.75;;
75986;SDS011;75291;44.670;37.810;2024-03-07T02:28:52;25.45;;;13.85;;
75986;SDS011;75291;44.670;37.810;2024-03-07T02:29:57;23.48;;;12.23;;
75986;SDS011;75291;44.670;37.810;2024-03-07T02:31:02;21.98;;;11.73;;
75986;SDS011;75291;44.670;37.810;2024-03-07T02:32:07;28.08;;;13.65;;
75986;SDS011;75291;44.670;37.810;2024-03-07T02:33:13;27.05;;;12.70;;
75986;SDS011;75291;44.670;37.810;2024-03-07T02:34:18;28.67;;;14.13;;
75986;SDS011;75291;44.670;37.810;2024-03-07T02:35:23;26.95;;;14.18;;
75986;SDS011;75291;44.670;37.810;2024-03-07T02:36:27;28.88;;;13.32;;
75986;SDS011;75291;44.670;37.810;2024-03-07T02:37:32;30.65;;;14.07;;
75986;SDS011;75291;44.670;37.810;2024-03-07T02:38:37;26.55;;;14.38;;
75986;SDS011;75291;44.670;37.810;2024-03-07T02:39:43;20.75;;;10.85;;
75986;SDS011;75291;44.670;37.810;2024-03-07T02:40:48;25.30;;;11.23;;
75986;SDS011;75291;44.670;37.810;2024-03-07T02:41:53;24.58;;;12.93;;
75986;SDS011;75291;44.670;37.810;2024-03-07T02:42:58;28.00;;;14.30;;
75986;SDS011;75291;44.670;37.810;2024-03-07T02:44:03;30.05;;;13.88;;
75986;SDS011;75291;44.670;37.810;2024-03-07T02:45:08;30.05;;;13.98;;
75986;SDS011;75291;44.670;37.810;2024-03-07T02:46:14;38.97;;;14.88;;
75986;SDS011;75291;44.670;37.810;2024-03-07T02:47:19;26.20;;;13.23;;
75986;SDS011;75291;44.670;37.810;2024-03-07T02:48:30;27.23;;;13.45;;
75986;SDS011;75291;44.670;37.810;2024-03-07T02:49:35;28.52;;;15.30;;
75986;SDS011;75291;44.670;37.810;2024-03-07T02:50:40;32.88;;;15.27;;
75986;SDS011;75291;44.670;37.810;2024-03-07T02:51:45;29.98;;;14.02;;
75986;SDS011;75291;44.670;37.810;2024-03-07T02:52:51;26.15;;;13.57;;
75986;SDS011;75291;44.670;37.810;2024-03-07T02:53:56;32.20;;;15.70;;
75986;SDS011;75291;44.670;37.810;2024-03-07T02:55:02;30.23;;;15.00;;
75986;SDS011;75291;44.670;37.810;2024-03-07T02:56:10;29.70;;;13.93;;
75986;SDS011;75291;44.670;37.810;2024-03-07T02:57:16;24.73;;;13.32;;
75986;SDS011;75291;44.670;37.810;2024-03-07T02:58:21;29.33;;;15.13;;
75986;SDS011;75291;44.670;37.810;2024-03-07T02:59:26;33.53;;;15.82;;
75986;SDS011;75291;44.670;37.810;2024-03-07T03:00:31;30.30;;;15.30;;
75986;SDS011;75291;44.670;37.810;2024-03-07T03:01:35;27.75;;;15.48;;
75986;SDS011;75291;44.670;37.810;2024-03-07T03:02:40;27.83;;;14.13;;
75986;SDS011;75291;44.670;37.810;2024-03-07T03:03:45;28.85;;;15.32;;
75986;SDS011;75291;44.670;37.810;2024-03-07T03:04:49;30.67;;;15.90;;
75986;SDS011;75291;44.670;37.810;2024-03-07T03:05:54;30.77;;;15.35;;
75986;SDS011;75291;44.670;37.810;2024-03-07T03:06:59;29.27;;;16.05;;
75986;SDS011;75291;44.670;37.810;2024-03-07T03:08:04;26.98;;;13.73;;
75986;SDS011;75291;44.670;37.810;2024-03-07T03:09:11;29.65;;;14.65;;
75986;SDS011;75291;44.670;37.810;2024-03-07T03:10:22;26.92;;;13.77;;
75986;SDS011;75291;44.670;37.810;2024-03-07T03:11:33;27.55;;;14.63;;
75986;SDS011;75291;44.670;37.810;2024-03-07T03:12:37;30.08;;;14.85;;
75986;SDS011;75291;44.670;37.810;2024-03-07T03:13:41;28.60;;;15.10;;
75986;SDS011;75291;44.670;37.810;2024-03-07T03:14:46;28.45;;;14.38;;
75986;SDS011;75291;44.670;37.810;2024-03-07T03:15:51;28.63;;;15.10;;
75986;SDS011;75291;44.670;37.810;2024-03-07T03:16:55;22.63;;;11.95;;
75986;SDS011;75291;44.670;37.810;2024-03-07T03:18:00;26.23;;;15.38;;
75986;SDS011;75291;44.670;37.810;2024-03-07T03:19:05;27.23;;;15.10;;
75986;SDS011;75291;44.670;37.810;2024-03-07T03:20:10;24.52;;;14.32;;
75986;SDS011;75291;44.670;37.810;2024-03-07T03:21:19;27.52;;;14.43;;
75986;SDS011;75291;44.670;37.810;2024-03-07T03:22:24;25.65;;;13.52;;
75986;SDS011;75291;44.670;37.810;2024-03-07T03:23:31;26.00;;;13.10;;
75986;SDS011;75291;44.670;37.810;2024-03-07T03:24:36;23.83;;;12.82;;
75986;SDS011;75291;44.670;37.810;2024-03-07T03:25:41;27.80;;;14.25;;
75986;SDS011;75291;44.670;37.810;2024-03-07T03:26:47;26.17;;;13.07;;
75986;SDS011;75291;44.670;37.810;2024-03-07T03:27:53;21.40;;;12.25;;
75986;SDS011;75291;44.670;37.810;2024-03-07T03:28:58;22.13;;;12.65;;
75986;SDS011;75291;44.670;37.810;2024-03-07T03:30:03;20.13;;;11.18;;
75986;SDS011;75291;44.670;37.810;2024-03-07T03:31:08;22.58;;;13.13;;
75986;SDS011;75291;44.670;37.810;2024-03-07T03:32:13;20.83;;;11.55;;
75986;SDS011;75291;44.670;37.810;2024-03-07T03:33:18;21.63;;;12.25;;
75986;SDS011;75291;44.670;37.810;2024-03-07T03:34:24;24.27;;;13.18;;
75986;SDS011;75291;44.670;37.810;2024-03-07T03:35:31;20.83;;;12.20;;
75986;SDS011;75291;44.670;37.810;2024-03-07T03:36:37;19.98;;;11.50;;
75986;SDS011;75291;44.670;37.810;2024-03-07T03:37:43;19.48;;;11.25;;
75986;SDS011;75291;44.670;37.810;2024-03-07T03:38:47;22.40;;;12.70;;
75986;SDS011;75291;44.670;37.810;2024-03-07T03:39:52;21.02;;;11.95;;
75986;SDS011;75291;44.670;37.810;2024-03-07T03:40:57;19.77;;;12.15;;
75986;SDS011;75291;44.670;37.810;2024-03-07T03:42:02;17.65;;;10.10;;
75986;SDS011;75291;44.670;37.810;2024-03-07T03:43:07;20.73;;;11.27;;
75986;SDS011;75291;44.670;37.810;2024-03-07T03:44:12;19.73;;;10.85;;
75986;SDS011;75291;44.670;37.810;2024-03-07T03:45:15;20.10;;;10.88;;
75986;SDS011;75291;44.670;37.810;2024-03-07T03:46:21;17.90;;;10.57;;
75986;SDS011;75291;44.670;37.810;2024-03-07T03:47:27;20.00;;;10.77;;
75986;SDS011;75291;44.670;37.810;2024-03-07T03:48:32;19.52;;;10.95;;
75986;SDS011;75291;44.670;37.810;2024-03-07T03:49:36;18.90;;;10.95;;
75986;SDS011;75291;44.670;37.810;2024-03-07T03:50:40;16.00;;;8.60;;
75986;SDS011;75291;44.670;37.810;2024-03-07T03:51:44;20.02;;;11.35;;
75986;SDS011;75291;44.670;37.810;2024-03-07T03:52:49;18.63;;;10.07;;
75986;SDS011;75291;44.670;37.810;2024-03-07T03:53:55;20.02;;;10.50;;
75986;SDS011;75291;44.670;37.810;2024-03-07T03:54:59;16.80;;;10.68;;
75986;SDS011;75291;44.670;37.810;2024-03-07T03:56:04;17.17;;;9.57;;
75986;SDS011;75291;44.670;37.810;2024-03-07T03:57:08;16.92;;;8.93;;
75986;SDS011;75291;44.670;37.810;2024-03-07T03:58:13;16.45;;;9.88;;
75986;SDS011;75291;44.670;37.810;2024-03-07T03:59:17;16.88;;;8.80;;
75986;SDS011;75291;44.670;37.810;2024-03-07T04:00:22;16.00;;;8.35;;
75986;SDS011;75291;44.670;37.810;2024-03-07T04:01:27;17.42;;;8.55;;
75986;SDS011;75291;44.670;37.810;2024-03-07T04:02:32;12.30;;;7.43;;
75986;SDS011;75291;44.670;37.810;2024-03-07T04:03:37;15.32;;;9.50;;
75986;SDS011;75291;44.670;37.810;2024-03-07T04:04:42;16.60;;;9.45;;
75986;SDS011;75291;44.670;37.810;2024-03-07T04:05:49;12.38;;;6.93;;
75986;SDS011;75291;44.670;37.810;2024-03-07T04:06:53;14.75;;;8.50;;
75986;SDS011;75291;44.670;37.810;2024-03-07T04:07:57;16.02;;;9.52;;
75986;SDS011;75291;44.670;37.810;2024-03-07T04:09:03;10.98;;;6.03;;
75986;SDS011;75291;44.670;37.810;2024-03-07T04:10:08;17.08;;;8.73;;
75986;SDS011;75291;44.670;37.810;2024-03-07T04:11:14;11.55;;;6.88;;
75986;SDS011;75291;44.670;37.810;2024-03-07T04:12:19;12.18;;;6.03;;
75986;SDS011;75291;44.670;37.810;2024-03-07T04:13:24;11.10;;;6.13;;
75986;SDS011;75291;44.670;37.810;2024-03-07T04:14:29;8.73;;;5.00;;
75986;SDS011;75291;44.670;37.810;2024-03-07T04:15:36;15.02;;;7.60;;
75986;SDS011;75291;44.670;37.810;2024-03-07T04:16:41;12.75;;;7.65;;
75986;SDS011;75291;44.670;37.810;2024-03-07T04:17:46;12.45;;;6.60;;
75986;SDS011;75291;44.670;37.810;2024-03-07T04:18:51;14.93;;;8.57;;
75986;SDS011;75291;44.670;37.810;2024-03-07T04:19:56;17.52;;;8.68;;
75986;SDS011;75291;44.670;37.810;2024-03-07T04:21:02;13.10;;;8.48;;
75986;SDS011;75291;44.670;37.810;2024-03-07T04:22:06;19.38;;;8.40;;
75986;SDS011;75291;44.670;37.810;2024-03-07T04:23:15;15.23;;;8.07;;
75986;SDS011;75291;44.670;37.810;2024-03-07T04:24:19;15.63;;;9.05;;
75986;SDS011;75291;44.670;37.810;2024-03-07T04:25:24;14.63;;;8.43;;
75986;SDS011;75291;44.670;37.810;2024-03-07T04:26:29;14.95;;;8.50;;
75986;SDS011;75291;44.670;37.810;2024-03-07T04:27:34;18.20;;;10.13;;
75986;SDS011;75291;44.670;37.810;2024-03-07T04:28:41;18.33;;;9.82;;
75986;SDS011;75291;44.670;37.810;2024-03-07T04:29:45;20.40;;;10.38;;
75986;SDS011;75291;44.670;37.810;2024-03-07T04:30:51;19.83;;;10.38;;
75986;SDS011;75291;44.670;37.810;2024-03-07T04:31:56;19.85;;;10.23;;
75986;SDS011;75291;44.670;37.810;2024-03-07T04:33:00;15.30;;;8.95;;
75986;SDS011;75291;44.670;37.810;2024-03-07T04:34:06;14.48;;;8.13;;
75986;SDS011;75291;44.670;37.810;2024-03-07T04:35:10;16.73;;;9.73;;
75986;SDS011;75291;44.670;37.810;2024-03-07T04:36:15;19.13;;;9.57;;
75986;SDS011;75291;44.670;37.810;2024-03-07T04:37:20;16.17;;;8.98;;
75986;SDS011;75291;44.670;37.810;2024-03-07T04:38:26;17.83;;;9.23;;
75986;SDS011;75291;44.670;37.810;2024-03-07T04:39:32;17.58;;;8.60;;
75986;SDS011;75291;44.670;37.810;2024-03-07T04:40:37;17.17;;;10.15;;
75986;SDS011;75291;44.670;37.810;2024-03-07T04:41:43;22.25;;;10.20;;
75986;SDS011;75291;44.670;37.810;2024-03-07T04:42:47;18.00;;;10.25;;
75986;SDS011;75291;44.670;37.810;2024-03-07T04:43:53;17.92;;;9.90;;
75986;SDS011;75291;44.670;37.810;2024-03-07T04:44:59;19.77;;;10.20;;
75986;SDS011;75291;44.670;37.810;2024-03-07T04:46:06;19.27;;;10.20;;
75986;SDS011;75291;44.670;37.810;2024-03-07T04:47:11;18.65;;;10.75;;
75986;SDS011;75291;44.670;37.810;2024-03-07T04:48:17;18.17;;;10.48;;
75986;SDS011;75291;44.670;37.810;2024-03-07T04:49:22;19.30;;;11.32;;
75986;SDS011;75291;44.670;37.810;2024-03-07T04:50:31;18.35;;;9.70;;
75986;SDS011;75291;44.670;37.810;2024-03-07T04:51:36;15.88;;;9.82;;
75986;SDS011;75291;44.670;37.810;2024-03-07T04:52:42;20.83;;;11.18;;
75986;SDS011;75291;44.670;37.810;2024-03-07T04:53:51;18.40;;;10.75;;
75986;SDS011;75291;44.670;37.810;2024-03-07T04:54:56;16.80;;;11.10;;
75986;SDS011;75291;44.670;37.810;2024-03-07T04:56:01;18.50;;;9.85;;
75986;SDS011;75291;44.670;37.810;2024-03-07T04:57:06;20.50;;;10.95;;
75986;SDS011;75291;44.670;37.810;2024-03-07T04:58:10;18.88;;;9.85;;
75986;SDS011;75291;44.670;37.810;2024-03-07T04:59:16;22.45;;;11.40;;
75986;SDS011;75291;44.670;37.810;2024-03-07T05:00:22;18.85;;;11.55;;
75986;SDS011;75291;44.670;37.810;2024-03-07T05:01:27;20.67;;;11.90;;
75986;SDS011;75291;44.670;37.810;2024-03-07T05:02:32;18.23;;;9.50;;
75986;SDS011;75291;44.670;37.810;2024-03-07T05:03:37;18.42;;;8.70;;
75986;SDS011;75291;44.670;37.810;2024-03-07T05:04:42;19.08;;;9.82;;
75986;SDS011;75291;44.670;37.810;2024-03-07T05:05:46;19.13;;;11.35;;
75986;SDS011;75291;44.670;37.810;2024-03-07T05:06:51;21.65;;;11.02;;
75986;SDS011;75291;44.670;37.810;2024-03-07T05:07:56;22.27;;;11.85;;
75986;SDS011;75291;44.670;37.810;2024-03-07T05:09:03;18.92;;;10.77;;
75986;SDS011;75291;44.670;37.810;2024-03-07T05:10:09;21.77;;;11.18;;
75986;SDS011;75291;44.670;37.810;2024-03-07T05:11:13;17.73;;;9.55;;
75986;SDS011;75291;44.670;37.810;2024-03-07T05:12:18;16.85;;;9.35;;
75986;SDS011;75291;44.670;37.810;2024-03-07T05:13:23;16.65;;;10.48;;
75986;SDS011;75291;44.670;37.810;2024-03-07T05:14:27;15.57;;;8.52;;
75986;SDS011;75291;44.670;37.810;2024-03-07T05:15:32;17.65;;;9.75;;
75986;SDS011;75291;44.670;37.810;2024-03-07T05:16:38;19.65;;;9.95;;
75986;SDS011;75291;44.670;37.810;2024-03-07T05:17:42;17.25;;;10.65;;
75986;SDS011;75291;44.670;37.810;2024-03-07T05:18:47;17.52;;;10.25;;
75986;SDS011;75291;44.670;37.810;2024-03-07T05:19:53;18.90;;;10.63;;
75986;SDS011;75291;44.670;37.810;2024-03-07T05:20:58;20.45;;;11.80;;
75986;SDS011;75291;44.670;37.810;2024-03-07T05:22:22;21.75;;;11.27;;
75986;SDS011;75291;44.670;37.810;2024-03-07T05:23:29;22.35;;;10.60;;
75986;SDS011;75291;44.670;37.810;2024-03-07T05:24:36;17.73;;;11.35;;
75986;SDS011;75291;44.670;37.810;2024-03-07T05:25:40;20.77;;;11.98;;
75986;SDS011;75291;44.670;37.810;2024-03-07T05:26:45;19.40;;;10.85;;
75986;SDS011;75291;44.670;37.810;2024-03-07T05:27:50;18.58;;;11.15;;
75986;SDS011;75291;44.670;37.810;2024-03-07T05:28:54;19.50;;;9.05;;
75986;SDS011;75291;44.670;37.810;2024-03-07T05:29:59;19.52;;;10.18;;
75986;SDS011;75291;44.670;37.810;2024-03-07T05:31:04;19.63;;;10.45;;
75986;SDS011;75291;44.670;37.810;2024-03-07T05:32:22;22.42;;;10.43;;
75986;SDS011;75291;44.670;37.810;2024-03-07T05:33:31;18.75;;;9.95;;
75986;SDS011;75291;44.670;37.810;2024-03-07T05:34:35;19.90;;;10.50;;
75986;SDS011;75291;44.670;37.810;2024-03-07T05:36:53;19.10;;;10.65;;
75986;SDS011;75291;44.670;37.810;2024-03-07T05:37:57;21.85;;;10.88;;
75986;SDS011;75291;44.670;37.810;2024-03-07T05:39:04;17.08;;;10.05;;
75986;SDS011;75291;44.670;37.810;2024-03-07T05:40:14;16.80;;;9.85;;
75986;SDS011;75291;44.670;37.810;2024-03-07T05:41:18;18.13;;;10.40;;
75986;SDS011;75291;44.670;37.810;2024-03-07T05:42:22;16.80;;;10.30;;
75986;SDS011;75291;44.670;37.810;2024-03-07T05:43:29;16.27;;;9.27;;
75986;SDS011;75291;44.670;37.810;2024-03-07T05:44:33;20.80;;;10.05;;
75986;SDS011;75291;44.670;37.810;2024-03-07T05:45:37;19.88;;;11.13;;
75986;SDS011;75291;44.670;37.810;2024-03-07T05:46:42;19.40;;;10.38;;
75986;SDS011;75291;44.670;37.810;2024-03-07T05:47:52;15.38;;;9.23;;
75986;SDS011;75291;44.670;37.810;2024-03-07T05:48:57;21.08;;;10.07;;
75986;SDS011;75291;44.670;37.810;2024-03-07T05:50:02;17.50;;;9.85;;
75986;SDS011;75291;44.670;37.810;2024-03-07T05:51:07;16.70;;;10.68;;
75986;SDS011;75291;44.670;37.810;2024-03-07T05:52:12;15.68;;;9.48;;
75986;SDS011;75291;44.670;37.810;2024-03-07T05:53:17;17.33;;;9.45;;
75986;SDS011;75291;44.670;37.810;2024-03-07T05:54:22;16.42;;;9.88;;
75986;SDS011;75291;44.670;37.810;2024-03-07T05:55:26;17.08;;;10.27;;
75986;SDS011;75291;44.670;37.810;2024-03-07T05:56:32;14.40;;;8.77;;
75986;SDS011;75291;44.670;37.810;2024-03-07T05:57:42;16.40;;;10.13;;
75986;SDS011;75291;44.670;37.810;2024-03-07T05:58:49;12.85;;;8.48;;
75986;SDS011;75291;44.670;37.810;2024-03-07T05:59:55;18.65;;;10.95;;
75986;SDS011;75291;44.670;37.810;2024-03-07T06:01:00;10.15;;;6.63;;
75986;SDS011;75291;44.670;37.810;2024-03-07T06:02:05;19.00;;;9.57;;
75986;SDS011;75291;44.670;37.810;2024-03-07T06:03:10;16.48;;;9.20;;
75986;SDS011;75291;44.670;37.810;2024-03-07T06:04:16;16.55;;;8.25;;
75986;SDS011;75291;44.670;37.810;2024-03-07T06:05:21;18.67;;;10.00;;
75986;SDS011;75291;44.670;37.810;2024-03-07T06:06:26;17.25;;;9.98;;
75986;SDS011;75291;44.670;37.810;2024-03-07T06:07:32;18.92;;;10.25;;
75986;SDS011;75291;44.670;37.810;2024-03-07T06:08:36;14.25;;;8.45;;
75986;SDS011;75291;44.670;37.810;2024-03-07T06:09:41;18.48;;;9.73;;
75986;SDS011;75291;44.670;37.810;2024-03-07T06:10:48;12.38;;;8.07;;
75986;SDS011;75291;44.670;37.810;2024-03-07T06:11:53;19.75;;;9.02;;
75986;SDS011;75291;44.670;37.810;2024-03-07T06:12:59;17.55;;;9.63;;
75986;SDS011;75291;44.670;37.810;2024-03-07T06:14:06;17.70;;;11.13;;
75986;SDS011;75291;44.670;37.810;2024-03-07T06:15:10;13.80;;;8.48;;
75986;SDS011;75291;44.670;37.810;2024-03-07T06:16:16;13.10;;;7.35;;
75986;SDS011;75291;44.670;37.810;2024-03-07T06:17:22;13.40;;;8.65;;
75986;SDS011;75291;44.670;37.810;2024-03-07T06:18:27;16.63;;;9.10;;
75986;SDS011;75291;44.670;37.810;2024-03-07T06:19:35;17.05;;;8.27;;
75986;SDS011;75291;44.670;37.810;2024-03-07T06:20:41;14.82;;;8.45;;
75986;SDS011;75291;44.670;37.810;2024-03-07T06:21:46;13.82;;;8.07;;